createdAt,value
2018-03-16T00:02:04.481Z,30.55
2018-03-16T00:04:30.960Z,27.90
2018-03-16T00:06:58.238Z,29.30
2018-03-16T00:09:24.630Z,26.10
2018-03-16T00:11:51.150Z,28.65
2018-03-16T00:14:18.342Z,28.45
2018-03-16T00:16:44.788Z,30.70
2018-03-16T00:19:11.233Z,27.80
2018-03-16T00:21:38.509Z,28.95
2018-03-16T00:24:04.947Z,28.80
2018-03-16T00:26:32.105Z,28.50
2018-03-16T00:28:59.485Z,30.35
2018-03-16T00:31:25.928Z,28.90
2018-03-16T00:33:52.354Z,29.20
2018-03-16T00:36:18.783Z,31.02
2018-03-16T00:38:45.940Z,28.15
2018-03-16T00:41:13.107Z,29.30
2018-03-16T00:43:39.508Z,32.13
2018-03-16T00:46:06.653Z,30.90
2018-03-16T00:48:33.082Z,30.25
2018-03-16T00:50:59.481Z,30.80
2018-03-16T00:53:25.875Z,29.75
2018-03-16T00:55:52.377Z,30.17
2018-03-16T00:58:18.826Z,30.17
2018-03-16T01:00:45.993Z,32.13
2018-03-16T01:03:13.169Z,33.13
2018-03-16T01:05:40.328Z,30.00
2018-03-16T01:08:06.765Z,29.58
2018-03-16T01:10:33.187Z,31.45
2018-03-16T01:12:59.623Z,31.73
2018-03-16T01:15:26.027Z,35.10
2018-03-16T01:17:52.942Z,34.42
2018-03-16T01:20:20.014Z,31.40
2018-03-16T01:22:46.418Z,31.23
2018-03-16T01:25:12.832Z,31.05
2018-03-16T01:27:39.270Z,32.03
2018-03-16T01:30:06.457Z,28.70
2018-03-16T01:32:33.342Z,29.63
2018-03-16T01:34:59.805Z,29.42
2018-03-16T01:37:26.197Z,29.12
2018-03-16T01:39:52.625Z,30.12
2018-03-16T01:42:19.057Z,29.27
2018-03-16T01:44:45.484Z,30.10
2018-03-16T01:47:12.637Z,28.25
2018-03-16T01:49:39.116Z,30.25
2018-03-16T01:52:06.270Z,28.77
2018-03-16T01:54:32.694Z,31.87
2018-03-16T01:56:59.200Z,28.75
2018-03-16T01:59:26.378Z,30.90
2018-03-16T02:01:52.785Z,30.30
2018-03-16T02:04:19.222Z,28.95
2018-03-16T02:06:45.741Z,29.77
2018-03-16T02:09:16.192Z,28.38
2018-03-16T02:11:43.259Z,29.60
2018-03-16T02:14:10.385Z,28.48
2018-03-16T02:16:36.789Z,30.42
2018-03-16T02:19:03.228Z,28.65
2018-03-16T02:21:30.412Z,30.05
2018-03-16T02:23:57.590Z,29.37
2018-03-16T02:26:24.062Z,29.33
2018-03-16T02:28:51.192Z,29.55
2018-03-16T02:31:17.622Z,29.52
2018-03-16T02:33:44.029Z,30.67
2018-03-16T02:36:10.454Z,31.12
2018-03-16T02:38:36.871Z,36.85
2018-03-16T02:41:03.296Z,34.25
2018-03-16T02:43:29.723Z,33.63
2018-03-16T02:45:56.919Z,33.20
2018-03-16T02:48:23.369Z,30.60
2018-03-16T02:50:49.814Z,30.85
2018-03-16T02:53:16.999Z,33.20
2018-03-16T02:55:44.140Z,32.35
2018-03-16T02:58:10.576Z,35.10
2018-03-16T03:00:36.983Z,31.65
2018-03-16T03:03:04.130Z,33.53
2018-03-16T03:05:30.523Z,33.25
2018-03-16T03:07:56.910Z,31.02
2018-03-16T03:10:23.299Z,33.22
2018-03-16T03:12:50.450Z,30.83
2018-03-16T03:15:16.903Z,32.67
2018-03-16T03:17:43.518Z,37.00
2018-03-16T03:20:09.935Z,35.53
2018-03-16T03:22:36.357Z,36.08
2018-03-16T03:25:02.836Z,30.83
2018-03-16T03:27:29.274Z,34.13
2018-03-16T03:29:55.790Z,33.40
2018-03-16T03:32:22.982Z,34.75
2018-03-16T03:34:49.470Z,33.08
2018-03-16T03:37:15.979Z,31.85
2018-03-16T03:39:43.252Z,32.97
2018-03-16T03:42:10.403Z,32.05
2018-03-16T03:44:36.803Z,33.17
2018-03-16T03:47:03.643Z,32.15
2018-03-16T03:49:30.808Z,32.75
2018-03-16T03:51:57.993Z,30.90
2018-03-16T03:54:24.409Z,32.05
2018-03-16T03:56:50.816Z,30.75
2018-03-16T03:59:17.249Z,32.70
2018-03-16T04:01:44.529Z,31.85
2018-03-16T04:04:11.855Z,32.92
2018-03-16T04:06:38.255Z,31.90
2018-03-16T04:09:05.463Z,32.05
2018-03-16T04:11:31.913Z,32.85
2018-03-16T04:13:58.447Z,32.08
2018-03-16T04:16:25.620Z,32.22
2018-03-16T04:18:52.796Z,31.75
2018-03-16T04:21:19.253Z,31.23
2018-03-16T04:23:45.671Z,30.95
2018-03-16T04:26:12.160Z,32.42
2018-03-16T04:28:38.617Z,32.60
2018-03-16T04:31:05.895Z,33.42
2018-03-16T04:33:32.304Z,33.75
2018-03-16T04:35:58.744Z,30.75
2018-03-16T04:38:25.259Z,30.75
2018-03-16T04:40:52.454Z,30.77
2018-03-16T04:43:18.911Z,32.58
2018-03-16T04:45:45.821Z,34.20
2018-03-16T04:48:12.254Z,33.75
2018-03-16T04:50:38.646Z,32.28
2018-03-16T04:53:05.056Z,32.58
2018-03-16T04:55:31.474Z,30.92
2018-03-16T04:57:58.633Z,32.22
2018-03-16T05:00:25.805Z,33.40
2018-03-16T05:02:52.945Z,33.03
2018-03-16T05:05:19.394Z,32.75
2018-03-16T05:07:45.781Z,33.13
2018-03-16T05:10:12.150Z,32.83
2018-03-16T05:12:39.974Z,34.15
2018-03-16T05:15:06.381Z,32.55
2018-03-16T05:17:32.771Z,34.47
2018-03-16T05:19:59.175Z,35.15
2018-03-16T05:22:25.578Z,35.58
2018-03-16T05:24:51.960Z,35.63
2018-03-16T05:27:19.117Z,36.35
2018-03-16T05:29:45.529Z,35.15
2018-03-16T05:32:12.699Z,33.30
2018-03-16T05:34:39.138Z,32.97
2018-03-16T05:37:05.635Z,35.53
2018-03-16T05:39:32.920Z,34.28
2018-03-16T05:41:59.344Z,35.55
2018-03-16T05:44:26.490Z,33.65
2018-03-16T05:46:52.907Z,35.75
2018-03-16T05:49:19.343Z,34.95
2018-03-16T05:51:46.499Z,35.80
2018-03-16T05:54:12.889Z,32.15
2018-03-16T05:56:39.429Z,32.97
2018-03-16T05:59:06.578Z,31.02
2018-03-16T06:01:33.059Z,32.22
2018-03-16T06:03:59.482Z,32.33
2018-03-16T06:06:25.884Z,32.28
2018-03-16T06:08:52.314Z,32.63
2018-03-16T06:11:19.505Z,37.38
2018-03-16T06:13:45.946Z,32.10
2018-03-16T06:16:13.804Z,31.60
2018-03-16T06:18:40.208Z,32.33
2018-03-16T06:21:06.608Z,30.42
2018-03-16T06:23:33.044Z,35.50
2018-03-16T06:25:59.486Z,32.17
2018-03-16T06:28:25.905Z,33.28
2018-03-16T06:30:53.100Z,33.78
2018-03-16T06:33:20.259Z,32.42
2018-03-16T06:35:46.683Z,32.90
2018-03-16T06:38:13.087Z,36.22
2018-03-16T06:40:40.123Z,32.42
2018-03-16T06:43:07.287Z,33.40
2018-03-16T06:45:34.467Z,31.70
2018-03-16T06:48:01.249Z,31.87
2018-03-16T06:50:28.414Z,35.15
2018-03-16T06:52:55.550Z,33.28
2018-03-16T06:55:22.050Z,33.72
2018-03-16T06:57:49.717Z,33.38
2018-03-16T07:00:16.084Z,33.95
2018-03-16T07:02:42.542Z,32.72
2018-03-16T07:05:09.730Z,33.90
2018-03-16T07:07:36.172Z,33.05
2018-03-16T07:10:03.440Z,33.13
2018-03-16T07:12:34.813Z,32.63
2018-03-16T07:15:13.516Z,32.60
2018-03-16T07:17:39.921Z,38.25
2018-03-16T07:20:06.338Z,31.05
2018-03-16T07:22:33.531Z,33.00
2018-03-16T07:25:00.689Z,33.65
2018-03-16T07:27:27.846Z,31.27
2018-03-16T07:29:55.002Z,32.95
2018-03-16T07:32:21.424Z,36.60
2018-03-16T07:34:47.845Z,32.85
2018-03-16T07:37:14.994Z,33.00
2018-03-16T07:39:43.260Z,31.67
2018-03-16T07:42:09.694Z,30.90
2018-03-16T07:44:36.129Z,32.47
2018-03-16T07:47:03.411Z,35.95
2018-03-16T07:49:29.841Z,32.45
2018-03-16T07:51:56.269Z,33.20
2018-03-16T07:54:22.720Z,31.98
2018-03-16T07:56:49.161Z,32.40
2018-03-16T07:59:15.688Z,31.12
2018-03-16T08:01:42.118Z,33.40
2018-03-16T08:04:08.560Z,33.83
2018-03-16T08:06:35.001Z,30.42
2018-03-16T08:09:01.944Z,28.20
2018-03-16T08:11:28.395Z,29.87
2018-03-16T08:13:54.894Z,28.20
2018-03-16T08:16:21.317Z,28.50
2018-03-16T08:18:47.742Z,29.42
2018-03-16T08:21:14.927Z,27.60
2018-03-16T08:23:41.361Z,25.05
2018-03-16T08:26:08.537Z,23.02
2018-03-16T08:28:35.794Z,24.02
2018-03-16T08:31:02.485Z,26.12
2018-03-16T08:33:29.008Z,27.95
2018-03-16T08:35:56.295Z,25.83
2018-03-16T08:38:22.764Z,25.65
2018-03-16T08:40:49.910Z,27.10
2018-03-16T08:43:16.362Z,25.83
2018-03-16T08:45:42.789Z,30.35
2018-03-16T08:48:09.247Z,27.30
2018-03-16T08:50:35.707Z,25.20
2018-03-16T08:53:02.821Z,21.95
2018-03-16T08:55:30.064Z,15.43
2018-03-16T08:57:56.506Z,16.08
2018-03-16T09:00:22.962Z,14.10
2018-03-16T09:02:49.394Z,16.42
2018-03-16T09:05:15.959Z,15.18
2018-03-16T09:07:42.581Z,18.08
2018-03-16T09:10:09.768Z,28.05
2018-03-16T09:12:37.090Z,29.35
2018-03-16T09:15:03.603Z,32.33
2018-03-16T09:17:30.774Z,30.42
2018-03-16T09:19:57.960Z,25.67
2018-03-16T09:22:24.608Z,23.60
2018-03-16T09:24:51.097Z,22.30
2018-03-16T09:27:17.535Z,17.92
2018-03-16T09:29:43.994Z,18.73
2018-03-16T09:32:11.179Z,15.48
2018-03-16T09:34:37.617Z,16.67
2018-03-16T09:37:04.122Z,15.75
2018-03-16T09:39:30.581Z,15.00
2018-03-16T09:41:57.056Z,18.40
2018-03-16T09:44:24.964Z,20.15
2018-03-16T09:46:51.478Z,14.13
2018-03-16T09:49:17.980Z,14.45
2018-03-16T09:51:45.275Z,13.95
2018-03-16T09:54:11.778Z,14.20
2018-03-16T09:56:38.262Z,15.80
2018-03-16T09:59:04.686Z,14.05
2018-03-16T10:01:31.083Z,13.27
2018-03-16T10:03:57.520Z,12.90
2018-03-16T10:06:24.670Z,17.75
2018-03-16T10:08:51.107Z,13.77
2018-03-16T10:11:17.684Z,12.70
2018-03-16T10:13:44.175Z,11.85
2018-03-16T10:16:11.334Z,11.15
2018-03-16T10:18:37.805Z,12.23
2018-03-16T10:21:05.046Z,18.70
2018-03-16T10:23:31.538Z,28.33
2018-03-16T10:25:59.912Z,16.55
2018-03-16T10:28:26.352Z,16.92
2018-03-16T10:30:52.790Z,28.38
2018-03-16T10:33:19.206Z,24.25
2018-03-16T10:35:45.645Z,18.87
2018-03-16T10:38:13.057Z,10.93
2018-03-16T10:40:39.595Z,11.35
2018-03-16T10:43:06.776Z,9.55
2018-03-16T10:45:33.232Z,10.25
2018-03-16T10:47:59.786Z,10.10
2018-03-16T10:50:26.330Z,8.27
2018-03-16T10:52:53.720Z,9.32
2018-03-16T10:55:20.956Z,10.70
2018-03-16T10:57:47.515Z,8.95
2018-03-16T11:00:15.238Z,11.25
2018-03-16T11:02:47.829Z,10.32
2018-03-16T11:05:17.790Z,10.40
2018-03-16T11:07:44.296Z,18.17
2018-03-16T11:10:10.750Z,11.70
2018-03-16T11:12:37.218Z,24.70
2018-03-16T11:15:04.507Z,30.27
2018-03-16T11:17:31.697Z,34.05
2018-03-16T11:19:58.113Z,31.85
2018-03-16T11:22:24.578Z,27.40
2018-03-16T11:24:51.760Z,15.73
2018-03-16T11:27:18.919Z,14.38
2018-03-16T11:29:45.944Z,19.08
2018-03-16T11:32:12.393Z,12.88
2018-03-16T11:34:38.854Z,27.20
2018-03-16T11:37:05.273Z,14.90
2018-03-16T11:39:32.395Z,13.15
2018-03-16T11:41:58.817Z,11.48
2018-03-16T11:44:25.260Z,11.32
2018-03-16T11:46:51.815Z,13.35
2018-03-16T11:49:18.977Z,25.52
2018-03-16T11:51:46.147Z,13.48
2018-03-16T11:54:12.682Z,10.60
2018-03-16T11:56:39.138Z,11.80
2018-03-16T11:59:05.556Z,11.55
2018-03-16T12:01:31.967Z,12.00
2018-03-16T12:03:59.113Z,11.27
2018-03-16T12:06:25.612Z,12.25
2018-03-16T12:08:52.778Z,11.60
2018-03-16T12:11:19.184Z,11.27
2018-03-16T12:13:45.696Z,10.98
2018-03-16T12:16:12.848Z,10.88
2018-03-16T12:18:39.262Z,12.20
2018-03-16T12:21:05.627Z,10.70
2018-03-16T12:23:32.147Z,11.63
2018-03-16T12:25:58.591Z,10.07
2018-03-16T12:28:49.113Z,15.60
2018-03-16T12:30:52.182Z,11.85
2018-03-16T12:33:18.654Z,12.43
2018-03-16T12:35:45.131Z,10.95
2018-03-16T12:38:12.928Z,11.10
2018-03-16T12:40:39.380Z,11.60
2018-03-16T12:43:05.830Z,10.35
2018-03-16T12:45:33.206Z,10.95
2018-03-16T12:48:00.348Z,15.00
2018-03-16T12:50:26.769Z,13.13
2018-03-16T12:52:53.171Z,9.75
2018-03-16T12:55:19.603Z,9.13
2018-03-16T12:57:46.041Z,10.32
2018-03-16T13:00:12.462Z,9.50
2018-03-16T13:02:38.894Z,9.23
2018-03-16T13:05:06.052Z,9.13
2018-03-16T13:07:32.474Z,9.88
2018-03-16T13:09:58.893Z,15.60
2018-03-16T13:12:26.065Z,31.55
2018-03-16T13:14:53.953Z,18.65
2018-03-16T13:17:21.234Z,9.60
2018-03-16T13:19:47.792Z,10.55
2018-03-16T13:22:14.184Z,9.35
2018-03-16T13:24:40.627Z,7.70
2018-03-16T13:27:07.158Z,7.50
2018-03-16T13:29:34.337Z,7.47
2018-03-16T13:32:01.494Z,7.35
2018-03-16T13:34:28.882Z,7.55
2018-03-16T13:36:55.441Z,8.80
2018-03-16T13:39:21.926Z,9.10
2018-03-16T13:41:51.038Z,9.15
2018-03-16T13:44:17.463Z,10.23
2018-03-16T13:46:44.740Z,9.80
2018-03-16T13:49:11.939Z,11.43
2018-03-16T13:51:38.471Z,11.82
2018-03-16T13:54:04.972Z,10.70
2018-03-16T13:56:31.490Z,10.77
2018-03-16T13:58:58.043Z,12.68
2018-03-16T14:01:25.245Z,10.68
2018-03-16T14:03:51.665Z,11.43
2018-03-16T14:06:18.946Z,12.75
2018-03-16T14:08:45.431Z,10.73
2018-03-16T14:11:11.907Z,12.63
2018-03-16T14:13:38.381Z,12.43
2018-03-16T14:16:04.977Z,13.23
2018-03-16T14:18:32.787Z,13.15
2018-03-16T14:20:59.260Z,14.55
2018-03-16T14:23:25.778Z,16.00
2018-03-16T14:25:52.972Z,14.02
2018-03-16T14:28:19.511Z,15.85
2018-03-16T14:30:45.927Z,15.50
2018-03-16T14:33:12.360Z,13.98
2018-03-16T14:35:42.297Z,15.52
2018-03-16T14:38:08.717Z,17.55
2018-03-16T14:40:35.167Z,14.75
2018-03-16T14:43:03.770Z,16.10
2018-03-16T14:45:30.222Z,17.23
2018-03-16T14:47:57.407Z,20.70
2018-03-16T14:50:23.820Z,17.55
2018-03-16T14:52:50.242Z,17.50
2018-03-16T14:55:16.669Z,17.42
2018-03-16T14:57:43.152Z,17.25
2018-03-16T15:00:09.616Z,17.37
2018-03-16T15:02:36.053Z,21.17
2018-03-16T15:05:02.657Z,20.60
2018-03-16T15:07:29.126Z,20.35
2018-03-16T15:09:55.707Z,17.58
2018-03-16T15:12:22.179Z,16.02
2018-03-16T15:14:48.614Z,16.42
2018-03-16T15:17:15.862Z,16.00
2018-03-16T15:19:42.260Z,17.90
2018-03-16T15:22:08.673Z,16.83
2018-03-16T15:24:35.166Z,15.50
2018-03-16T15:27:02.313Z,20.20
2018-03-16T15:29:29.606Z,16.40
2018-03-16T15:31:56.866Z,15.77
2018-03-16T15:34:23.370Z,13.77
2018-03-16T15:36:49.831Z,14.90
2018-03-16T15:39:16.325Z,14.15
2018-03-16T15:41:42.865Z,15.45
2018-03-16T15:44:09.647Z,11.88
2018-03-16T15:46:36.111Z,13.93
2018-03-16T15:49:03.414Z,12.52
2018-03-16T15:51:29.811Z,12.00
2018-03-16T15:53:56.272Z,12.43
2018-03-16T15:56:22.738Z,12.75
2018-03-16T15:58:49.212Z,11.48
2018-03-16T16:01:15.642Z,13.50
2018-03-16T16:03:42.713Z,19.87
2018-03-16T16:06:09.155Z,15.98
2018-03-16T16:08:35.667Z,13.95
2018-03-16T16:11:02.185Z,17.20
2018-03-16T16:13:28.584Z,12.15
2018-03-16T16:15:54.998Z,14.93
2018-03-16T16:18:21.941Z,12.23
2018-03-16T16:20:48.524Z,14.30
2018-03-16T16:23:15.213Z,15.23
2018-03-16T16:25:42.357Z,13.45
2018-03-16T16:28:08.857Z,13.15
2018-03-16T16:30:35.316Z,15.43
2018-03-16T16:33:02.077Z,12.52
2018-03-16T16:35:28.810Z,17.50
2018-03-16T16:37:56.022Z,12.45
2018-03-16T16:40:22.875Z,13.02
2018-03-16T16:42:49.738Z,14.77
2018-03-16T16:45:16.203Z,13.90
2018-03-16T16:47:43.177Z,16.00
2018-03-16T16:50:10.249Z,15.57
2018-03-16T16:52:36.850Z,13.10
2018-03-16T16:55:03.695Z,18.00
2018-03-16T16:57:30.202Z,18.40
2018-03-16T16:59:57.594Z,15.65
2018-03-16T17:02:24.080Z,15.00
2018-03-16T17:04:50.752Z,16.87
2018-03-16T17:07:17.164Z,16.55
2018-03-16T17:09:43.613Z,16.55
2018-03-16T17:12:10.761Z,17.52
2018-03-16T17:14:37.188Z,17.98
2018-03-16T17:17:03.604Z,19.58
2018-03-16T17:19:30.779Z,18.37
2018-03-16T17:21:57.228Z,20.12
2018-03-16T17:24:24.610Z,19.52
2018-03-16T17:26:51.782Z,20.42
2018-03-16T17:29:18.969Z,22.45
2018-03-16T17:31:45.427Z,20.90
2018-03-16T17:34:11.969Z,19.52
2018-03-16T17:36:39.141Z,21.00
2018-03-16T17:39:06.336Z,18.60
2018-03-16T17:41:32.784Z,19.75
2018-03-16T17:43:59.224Z,20.62
2018-03-16T17:46:26.350Z,22.75
2018-03-16T17:48:52.803Z,19.50
2018-03-16T17:51:19.266Z,20.55
2018-03-16T17:53:45.744Z,21.10
2018-03-16T17:56:12.189Z,21.85
2018-03-16T17:58:38.636Z,21.55
2018-03-16T18:01:05.138Z,21.30
2018-03-16T18:03:32.320Z,18.20
2018-03-16T18:05:59.251Z,18.55
2018-03-16T18:08:26.124Z,19.45
2018-03-16T18:10:53.419Z,19.73
2018-03-16T18:13:21.300Z,18.00
2018-03-16T18:15:47.759Z,23.35
2018-03-16T18:18:14.968Z,19.98
2018-03-16T18:20:41.394Z,18.77
2018-03-16T18:23:07.834Z,18.85
2018-03-16T18:25:35.062Z,19.52
2018-03-16T18:28:02.234Z,20.37
2018-03-16T18:30:28.750Z,20.30
2018-03-16T18:32:55.191Z,19.00
2018-03-16T18:35:22.477Z,20.35
2018-03-16T18:37:49.716Z,20.90
2018-03-16T18:40:16.415Z,20.55
2018-03-16T18:42:42.947Z,21.20
2018-03-16T18:45:09.464Z,19.17
2018-03-16T18:47:35.992Z,23.15
2018-03-16T18:50:02.634Z,25.85
2018-03-16T18:52:30.436Z,23.75
2018-03-16T18:54:57.606Z,23.60
2018-03-16T18:57:24.164Z,21.08
2018-03-16T18:59:51.495Z,21.20
2018-03-16T19:02:18.203Z,22.15
2018-03-16T19:04:44.817Z,21.80
2018-03-16T19:07:12.094Z,22.00
2018-03-16T19:09:38.838Z,21.55
2018-03-16T19:12:05.273Z,23.10
2018-03-16T19:14:32.328Z,20.90
2018-03-16T19:16:58.732Z,21.37
2018-03-16T19:19:25.153Z,21.17
2018-03-16T19:21:51.611Z,21.75
2018-03-16T19:24:18.000Z,21.50
2018-03-16T19:26:44.421Z,22.45
2018-03-16T19:29:10.992Z,21.65
2018-03-16T19:31:37.517Z,25.20
2018-03-16T19:34:04.794Z,23.77
2018-03-16T19:36:31.957Z,22.00
2018-03-16T19:38:58.395Z,21.73
2018-03-16T19:41:24.838Z,22.90
2018-03-16T19:43:51.333Z,21.25
2018-03-16T19:46:18.518Z,22.10
2018-03-16T19:48:45.776Z,20.40
2018-03-16T19:51:12.933Z,19.87
2018-03-16T19:53:39.342Z,20.98
2018-03-16T19:56:05.987Z,20.60
2018-03-16T19:58:32.509Z,20.75
2018-03-16T20:00:58.941Z,20.60
2018-03-16T20:03:25.473Z,21.20
2018-03-16T20:05:52.080Z,21.33
2018-03-16T20:08:18.524Z,20.50
2018-03-16T20:10:45.106Z,22.10
2018-03-16T20:13:11.674Z,19.58
2018-03-16T20:15:38.823Z,20.42
2018-03-16T20:18:05.300Z,18.95
2018-03-16T20:20:31.971Z,18.42
2018-03-16T20:22:58.627Z,20.55
2018-03-16T20:25:25.153Z,20.48
2018-03-16T20:27:51.646Z,19.37
2018-03-16T20:30:18.126Z,22.48
2018-03-16T20:32:44.654Z,20.55
2018-03-16T20:35:12.030Z,20.05
2018-03-16T20:37:38.518Z,21.00
2018-03-16T20:40:05.250Z,20.30
2018-03-16T20:42:32.628Z,20.65
2018-03-16T20:44:59.083Z,21.42
2018-03-16T20:47:27.073Z,22.23
2018-03-16T20:49:54.350Z,19.92
2018-03-16T20:52:20.829Z,20.58
2018-03-16T20:54:47.302Z,21.48
2018-03-16T20:57:13.739Z,19.75
2018-03-16T20:59:41.232Z,21.92
2018-03-16T21:02:07.957Z,19.80
2018-03-16T21:04:35.109Z,19.45
2018-03-16T21:07:01.564Z,19.70
2018-03-16T21:09:28.861Z,21.10
2018-03-16T21:11:56.141Z,20.55
2018-03-16T21:14:22.698Z,19.45
2018-03-16T21:16:49.216Z,20.23
2018-03-16T21:19:15.814Z,20.33
2018-03-16T21:21:42.246Z,25.10
2018-03-16T21:24:08.742Z,22.87
2018-03-16T21:26:36.069Z,22.90
2018-03-16T21:29:02.563Z,19.62
2018-03-16T21:31:30.035Z,21.83
2018-03-16T21:33:57.313Z,22.10
2018-03-16T21:36:24.483Z,25.25
2018-03-16T21:38:51.712Z,22.25
2018-03-16T21:41:18.316Z,21.40
2018-03-16T21:43:45.503Z,19.83
2018-03-16T21:46:11.955Z,22.08
2018-03-16T21:48:38.404Z,21.48
2018-03-16T21:51:04.857Z,25.85
2018-03-16T21:53:31.315Z,26.45
2018-03-16T21:55:57.791Z,22.25
2018-03-16T21:58:24.330Z,25.80
2018-03-16T22:00:51.197Z,23.55
2018-03-16T22:03:17.664Z,24.55
2018-03-16T22:05:44.210Z,22.37
2018-03-16T22:08:10.658Z,20.70
2018-03-16T22:10:38.041Z,21.02
2018-03-16T22:13:04.568Z,20.00
2018-03-16T22:15:31.776Z,19.37
2018-03-16T22:17:58.307Z,20.98
2018-03-16T22:20:24.743Z,19.55
2018-03-16T22:22:51.612Z,20.77
2018-03-16T22:25:19.030Z,20.40
2018-03-16T22:27:45.586Z,23.30
2018-03-16T22:30:12.799Z,21.80
2018-03-16T22:32:39.314Z,19.48
2018-03-16T22:35:06.853Z,24.10
2018-03-16T22:37:33.331Z,22.00
2018-03-16T22:40:00.590Z,20.15
2018-03-16T22:42:27.393Z,19.48
2018-03-16T22:44:54.532Z,19.58
2018-03-16T22:47:21.018Z,20.60
2018-03-16T22:49:49.134Z,19.77
2018-03-16T22:52:15.630Z,19.40
2018-03-16T22:54:42.235Z,18.85
2018-03-16T22:57:08.893Z,18.17
2018-03-16T22:59:36.165Z,18.67
2018-03-16T23:02:03.483Z,22.80
2018-03-16T23:04:29.923Z,22.30
2018-03-16T23:06:56.456Z,19.98
2018-03-16T23:09:23.626Z,19.75
2018-03-16T23:11:50.084Z,19.58
2018-03-16T23:14:17.270Z,18.73
2018-03-16T23:16:43.712Z,17.23
2018-03-16T23:19:10.892Z,17.60
2018-03-16T23:21:37.307Z,17.75
2018-03-16T23:24:04.508Z,18.15
2018-03-16T23:26:32.613Z,17.77
2018-03-16T23:28:59.023Z,18.10
2018-03-16T23:31:25.520Z,16.80
2018-03-16T23:33:53.310Z,17.92
2018-03-16T23:36:19.722Z,17.55
2018-03-16T23:38:46.120Z,17.65
2018-03-16T23:41:12.545Z,18.10
2018-03-16T23:43:39.449Z,18.33
2018-03-16T23:46:05.873Z,14.43
2018-03-16T23:48:32.282Z,18.60
2018-03-16T23:50:58.718Z,16.77
2018-03-16T23:53:25.150Z,18.10
2018-03-16T23:55:52.316Z,17.55
2018-03-16T23:58:19.480Z,16.60
